Spabunker 51 — ECNA — position and weather

sailwx.info

Track history (hours):
 
Tides and Currents Weather Stations Pressure Air Temp Water Temp Dewpoint Dewpoint Depression Visibility Wind Speed Wind Dir Waves Ship Positions

Spabunker 51

Last reported at 2017-Jan-09 16:14 UTC. Time now 2017-Jan-20 05:55 UTC.
Position N 36°09' W 005°26'.
Warning: this ship's position is 10 days out of date.

Length 84 m; draft 5.8 m.

Type: Tanker. MMSI: 224322240.

Date/timePositionNaut miles runAvg speedWind from/ knotsBaromVisibWave heightAir tempDewpointWater temp
2017-Jan-09 16:14N 36°09' W 005°26'4 4.7
2017-Jan-09 15:24N 36°05' W 005°24'0 0.1
2017-Jan-09 14:33N 36°05' W 005°24'0 0.0
2017-Jan-09 13:33N 36°05' W 005°24'0 0.0
2017-Jan-09 12:31N 36°05' W 005°24'0 0.0
2017-Jan-09 08:06N 36°05' W 005°24'0 0.3
2017-Jan-09 07:33N 36°05' W 005°24'3 3.3
2017-Jan-09 06:33N 36°08' W 005°25'1 0.2
2017-Jan-09 02:29N 36°09' W 005°26'1 0.3
2017-Jan-09 00:33N 36°08' W 005°26'0 0.0
2017-Jan-08 18:31N 36°08' W 005°26'0 0.0
2017-Jan-07 23:19N 36°08' W 005°26'0 0.0
2017-Jan-07 14:17N 36°09' W 005°26'0 0.0
2017-Jan-07 13:33N 36°09' W 005°26'3 0.1
2017-Jan-06 07:03N 36°11' W 005°24'0 0.0
2017-Jan-06 06:31N 36°11' W 005°24'0 0.0
2017-Jan-06 02:28N 36°11' W 005°24'0 0.0
2017-Jan-06 01:32N 36°11' W 005°24'0 0.0
2017-Jan-05 23:31N 36°11' W 005°24'2 0.4
2017-Jan-05 17:17N 36°09' W 005°26'0 0.0
2017-Jan-05 15:30N 36°09' W 005°26'0 0.0
2017-Jan-05 14:29N 36°09' W 005°26'0 0.0
2017-Jan-05 06:12N 36°09' W 005°26'0 0.4
2017-Jan-05 05:33N 36°09' W 005°25'3 2.9
2017-Jan-05 04:31N 36°06' W 005°25'0 0.1
2017-Jan-05 03:34N 36°06' W 005°25'0 0.0
2017-Jan-05 02:34N 36°06' W 005°25'0 0.0
2017-Jan-05 01:27N 36°06' W 005°25'0 0.0
2017-Jan-05 00:32N 36°06' W 005°25'0 0.0
2017-Jan-04 23:33N 36°06' W 005°25'0 0.1
2017-Jan-04 17:04N 36°06' W 005°25'2 0.3
2017-Jan-04 07:30N 36°08' W 005°26'0 0.0
2017-Jan-04 06:33N 36°08' W 005°26'0 0.0
2017-Jan-04 05:33N 36°08' W 005°26'0 0.0
2017-Jan-04 04:33N 36°08' W 005°26'0 0.0
2017-Jan-04 03:34N 36°08' W 005°26'0 0.0
2017-Jan-04 02:34N 36°08' W 005°26'0 0.1
2017-Jan-03 23:04N 36°08' W 005°26'0 0.9
2017-Jan-03 22:32N 36°09' W 005°26'0 0.0
2017-Jan-03 21:18N 36°09' W 005°26'  
Track history (hours):
 
Tides and Currents Weather Stations Pressure Air Temp Water Temp Dewpoint Dewpoint Depression Visibility Wind Speed Wind Dir Waves Ship Positions

Spabunker 51

Last reported at 2017-Jan-09 16:14 UTC. Time now 2017-Jan-20 05:55 UTC.
Position N 36°09' W 005°26'.
Warning: this ship's position is 10 days out of date.

Length 84 m; draft 5.8 m.

Type: Tanker. MMSI: 224322240.

Date/timePositionNaut miles runAvg speedWind from/ knotsBaromVisibWave heightAir tempDewpointWater temp
2017-Jan-09 16:14N 36°09' W 005°26'4 4.7
2017-Jan-09 15:24N 36°05' W 005°24'0 0.1
2017-Jan-09 14:33N 36°05' W 005°24'0 0.0
2017-Jan-09 13:33N 36°05' W 005°24'0 0.0
2017-Jan-09 12:31N 36°05' W 005°24'0 0.0
2017-Jan-09 08:06N 36°05' W 005°24'0 0.3
2017-Jan-09 07:33N 36°05' W 005°24'3 3.3
2017-Jan-09 06:33N 36°08' W 005°25'1 0.2
2017-Jan-09 02:29N 36°09' W 005°26'1 0.3
2017-Jan-09 00:33N 36°08' W 005°26'0 0.0
2017-Jan-08 18:31N 36°08' W 005°26'0 0.0
2017-Jan-07 23:19N 36°08' W 005°26'0 0.0
2017-Jan-07 14:17N 36°09' W 005°26'0 0.0
2017-Jan-07 13:33N 36°09' W 005°26'3 0.1
2017-Jan-06 07:03N 36°11' W 005°24'0 0.0
2017-Jan-06 06:31N 36°11' W 005°24'0 0.0
2017-Jan-06 02:28N 36°11' W 005°24'0 0.0
2017-Jan-06 01:32N 36°11' W 005°24'0 0.0
2017-Jan-05 23:31N 36°11' W 005°24'2 0.4
2017-Jan-05 17:17N 36°09' W 005°26'0 0.0
2017-Jan-05 15:30N 36°09' W 005°26'0 0.0
2017-Jan-05 14:29N 36°09' W 005°26'0 0.0
2017-Jan-05 06:12N 36°09' W 005°26'0 0.4
2017-Jan-05 05:33N 36°09' W 005°25'3 2.9
2017-Jan-05 04:31N 36°06' W 005°25'0 0.1
2017-Jan-05 03:34N 36°06' W 005°25'0 0.0
2017-Jan-05 02:34N 36°06' W 005°25'0 0.0
2017-Jan-05 01:27N 36°06' W 005°25'0 0.0
2017-Jan-05 00:32N 36°06' W 005°25'0 0.0
2017-Jan-04 23:33N 36°06' W 005°25'0 0.1
2017-Jan-04 17:04N 36°06' W 005°25'2 0.3
2017-Jan-04 07:30N 36°08' W 005°26'0 0.0
2017-Jan-04 06:33N 36°08' W 005°26'0 0.0
2017-Jan-04 05:33N 36°08' W 005°26'0 0.0
2017-Jan-04 04:33N 36°08' W 005°26'0 0.0
2017-Jan-04 03:34N 36°08' W 005°26'0 0.0
2017-Jan-04 02:34N 36°08' W 005°26'0 0.1
2017-Jan-03 23:04N 36°08' W 005°26'0 0.9
2017-Jan-03 22:32N 36°09' W 005°26'0 0.0
2017-Jan-03 21:18N 36°09' W 005°26'  

Dump ship's entire track history